createdAt,value
2022-11-17T00:00:57.287Z,998.5
2022-11-17T00:02:00.260Z,998.5
2022-11-17T00:03:03.608Z,998.5
2022-11-17T00:04:07.331Z,998.5
2022-11-17T00:05:11.052Z,998.5
2022-11-17T00:06:13.736Z,998.5
2022-11-17T00:07:17.108Z,998.4
2022-11-17T00:08:20.294Z,998.4
2022-11-17T00:09:23.486Z,998.5
2022-11-17T00:10:25.537Z,998.4
2022-11-17T00:11:29.673Z,998.4
2022-11-17T00:12:33.719Z,998.4
2022-11-17T00:13:37.800Z,998.4
2022-11-17T00:14:40.697Z,998.5
2022-11-17T00:15:42.652Z,998.5
2022-11-17T00:16:46.016Z,998.5
2022-11-17T00:17:48.886Z,998.5
2022-11-17T00:18:51.992Z,998.4
2022-11-17T00:19:55.194Z,998.4
2022-11-17T00:20:57.818Z,998.3
2022-11-17T00:22:00.981Z,998.4
2022-11-17T00:23:03.503Z,998.3
2022-11-17T00:24:06.961Z,998.5
2022-11-17T00:25:09.832Z,998.4
2022-11-17T00:26:12.898Z,998.4
2022-11-17T00:27:17.398Z,998.4
2022-11-17T00:28:20.627Z,998.4
2022-11-17T00:29:23.866Z,998.3
2022-11-17T00:30:27.298Z,998.3
2022-11-17T00:31:29.822Z,998.3
2022-11-17T00:32:32.358Z,998.3
2022-11-17T00:33:36.831Z,998.3
2022-11-17T00:34:40.673Z,998.3
2022-11-17T00:35:44.202Z,998.3
2022-11-17T00:36:47.835Z,998.3
2022-11-17T00:37:50.571Z,998.3
2022-11-17T00:38:53.735Z,998.3
2022-11-17T00:40:01.540Z,998.3
2022-11-17T00:41:04.414Z,998.2
2022-11-17T00:42:07.410Z,998.1
2022-11-17T00:43:11.687Z,998.2
2022-11-17T00:44:14.961Z,998.2
2022-11-17T00:45:18.505Z,998.2
2022-11-17T00:46:21.303Z,998.2
2022-11-17T00:47:24.289Z,998.2
2022-11-17T00:48:27.085Z,998.3
2022-11-17T00:49:29.884Z,998.2
2022-11-17T00:50:32.753Z,998.3
2022-11-17T00:51:35.281Z,998.3
2022-11-17T00:52:38.279Z,998.3
2022-11-17T00:53:41.158Z,998.2
2022-11-17T00:54:43.883Z,998.3
2022-11-17T00:55:46.794Z,998.3
2022-11-17T00:56:50.021Z,998.3
2022-11-17T00:57:53.395Z,998.2
2022-11-17T00:58:57.974Z,998.3
2022-11-17T01:00:01.446Z,998.2
2022-11-17T01:01:05.071Z,998.2
2022-11-17T01:02:09.120Z,998.1
2022-11-17T01:03:12.197Z,998.2
2022-11-17T01:04:14.707Z,998.2
2022-11-17T01:05:17.244Z,998.1
2022-11-17T01:06:20.349Z,998.1
2022-11-17T01:07:23.333Z,998.1
2022-11-17T01:08:26.751Z,998.1
2022-11-17T01:09:29.548Z,998.1
2022-11-17T01:10:32.617Z,998.1
2022-11-17T01:11:35.698Z,998
2022-11-17T01:12:38.225Z,998.1
2022-11-17T01:13:41.329Z,998.1
2022-11-17T01:14:45.392Z,998
2022-11-17T01:15:47.865Z,998.1
2022-11-17T01:16:51.433Z,998
2022-11-17T01:17:54.254Z,998
2022-11-17T01:18:56.977Z,998
2022-11-17T01:20:00.123Z,998.1
2022-11-17T01:21:03.553Z,998
2022-11-17T01:22:06.607Z,998
2022-11-17T01:23:08.785Z,998
2022-11-17T01:24:11.667Z,998
2022-11-17T01:25:13.908Z,998
2022-11-17T01:26:16.985Z,998
2022-11-17T01:27:20.142Z,998
2022-11-17T01:28:22.667Z,998
2022-11-17T01:29:25.735Z,998
2022-11-17T01:30:30.315Z,998
2022-11-17T01:31:32.600Z,997.9
2022-11-17T01:32:36.045Z,998
2022-11-17T01:33:39.119Z,998
2022-11-17T01:34:42.290Z,998
2022-11-17T01:35:45.004Z,997.9
2022-11-17T01:36:48.350Z,998
2022-11-17T01:37:51.134Z,997.9
2022-11-17T01:38:53.997Z,997.9
2022-11-17T01:39:57.060Z,997.9
2022-11-17T01:41:00.480Z,998
2022-11-17T01:42:04.295Z,998.1
2022-11-17T01:43:06.898Z,998
2022-11-17T01:44:10.002Z,998
2022-11-17T01:45:13.105Z,998
2022-11-17T01:46:17.668Z,998
2022-11-17T01:47:20.647Z,998
2022-11-17T01:48:23.187Z,998
2022-11-17T01:49:26.267Z,998
2022-11-17T01:50:29.071Z,997.9
2022-11-17T01:51:31.588Z,997.9
2022-11-17T01:52:34.853Z,997.9
2022-11-17T01:53:38.303Z,997.9
2022-11-17T01:54:41.163Z,997.9
2022-11-17T01:55:43.753Z,997.8
2022-11-17T01:56:47.156Z,997.8
2022-11-17T01:57:49.663Z,997.8
2022-11-17T01:58:52.377Z,997.9
2022-11-17T01:59:55.178Z,997.8
2022-11-17T02:00:58.624Z,997.7
2022-11-17T02:02:02.972Z,997.7
2022-11-17T02:03:06.179Z,997.7
2022-11-17T02:04:09.622Z,997.7
2022-11-17T02:05:12.365Z,997.7
2022-11-17T02:06:15.726Z,997.6
2022-11-17T02:07:18.828Z,997.6
2022-11-17T02:08:22.320Z,997.5
2022-11-17T02:09:25.600Z,997.5
2022-11-17T02:10:28.410Z,997.5
2022-11-17T02:11:31.519Z,997.5
2022-11-17T02:12:34.236Z,997.6
2022-11-17T02:13:38.138Z,997.5
2022-11-17T02:14:40.995Z,997.4
2022-11-17T02:15:44.075Z,997.5
2022-11-17T02:16:46.592Z,997.4
2022-11-17T02:17:51.338Z,997.4
2022-11-17T02:18:54.874Z,997.4
2022-11-17T02:19:58.130Z,997.5
2022-11-17T02:21:00.464Z,997.4
2022-11-17T02:22:03.540Z,997.5
2022-11-17T02:23:06.143Z,997.5
2022-11-17T02:24:09.875Z,997.4
2022-11-17T02:25:12.760Z,997.5
2022-11-17T02:26:15.931Z,997.5
2022-11-17T02:27:18.651Z,997.4
2022-11-17T02:28:21.175Z,997.4
2022-11-17T02:29:23.977Z,997.5
2022-11-17T02:30:26.694Z,997.4
2022-11-17T02:31:29.247Z,997.4
2022-11-17T02:32:31.767Z,997.4
2022-11-17T02:33:36.478Z,997.4
2022-11-17T02:34:41.158Z,997.4
2022-11-17T02:35:45.184Z,997.4
2022-11-17T02:36:47.974Z,997.4
2022-11-17T02:37:50.564Z,997.4
2022-11-17T02:38:53.280Z,997.4
2022-11-17T02:39:55.717Z,997.4
2022-11-17T02:40:58.514Z,997.3
2022-11-17T02:42:01.290Z,997.3
2022-11-17T02:43:03.642Z,997.3
2022-11-17T02:44:06.365Z,997.2
2022-11-17T02:45:09.517Z,997.3
2022-11-17T02:46:12.789Z,997.3
2022-11-17T02:47:14.737Z,997.2
2022-11-17T02:48:17.443Z,997.2
2022-11-17T02:49:21.772Z,997.1
2022-11-17T02:50:28.829Z,997.1
2022-11-17T02:51:32.452Z,997.2
2022-11-17T02:52:35.792Z,997.2
2022-11-17T02:53:39.291Z,997.1
2022-11-17T02:54:43.037Z,997.2
2022-11-17T02:55:46.185Z,997.1
2022-11-17T02:56:48.227Z,997.1
2022-11-17T02:57:51.382Z,997.1
2022-11-17T02:58:54.195Z,997.1
2022-11-17T02:59:57.743Z,997
2022-11-17T03:01:00.845Z,996.9
2022-11-17T03:02:04.088Z,996.9
2022-11-17T03:03:07.457Z,997
2022-11-17T03:04:10.533Z,996.9
2022-11-17T03:05:15.115Z,996.9
2022-11-17T03:06:18.314Z,996.9
2022-11-17T03:07:21.054Z,996.9
2022-11-17T03:08:32.724Z,996.9
2022-11-17T03:09:36.378Z,997
2022-11-17T03:10:39.453Z,997
2022-11-17T03:11:42.272Z,997
2022-11-17T03:12:45.449Z,997
2022-11-17T03:13:48.005Z,997
2022-11-17T03:14:50.817Z,997
2022-11-17T03:15:52.977Z,997
2022-11-17T03:16:55.496Z,996.9
2022-11-17T03:17:58.209Z,996.9
2022-11-17T03:19:01.297Z,997
2022-11-17T03:20:04.238Z,996.8
2022-11-17T03:21:08.758Z,997
2022-11-17T03:22:11.822Z,996.9
2022-11-17T03:23:15.012Z,997
2022-11-17T03:24:18.333Z,997
2022-11-17T03:25:20.937Z,997
2022-11-17T03:26:23.471Z,997
2022-11-17T03:27:26.640Z,997
2022-11-17T03:28:29.728Z,997
2022-11-17T03:29:32.894Z,997
2022-11-17T03:30:38.178Z,997
2022-11-17T03:31:41.006Z,997
2022-11-17T03:32:43.922Z,996.9
2022-11-17T03:33:47.063Z,996.9
2022-11-17T03:34:49.791Z,997
2022-11-17T03:35:52.298Z,997
2022-11-17T03:36:56.787Z,997
2022-11-17T03:37:59.606Z,997
2022-11-17T03:39:02.719Z,997
2022-11-17T03:40:05.508Z,997
2022-11-17T03:41:08.931Z,997
2022-11-17T03:42:12.287Z,997
2022-11-17T03:43:15.175Z,996.9
2022-11-17T03:44:17.733Z,997
2022-11-17T03:45:20.816Z,996.9
2022-11-17T03:46:23.600Z,996.9
2022-11-17T03:47:26.116Z,996.9
2022-11-17T03:48:28.992Z,996.9
2022-11-17T03:49:32.051Z,996.8
2022-11-17T03:50:35.046Z,996.8
2022-11-17T03:51:38.267Z,996.8
2022-11-17T03:52:42.816Z,996.9
2022-11-17T03:53:45.637Z,996.8
2022-11-17T03:54:48.452Z,996.8
2022-11-17T03:55:50.673Z,996.8
2022-11-17T03:56:54.029Z,996.7
2022-11-17T03:57:57.382Z,996.7
2022-11-17T03:59:00.478Z,996.8
2022-11-17T04:00:03.680Z,996.8
2022-11-17T04:01:06.565Z,996.8
2022-11-17T04:02:10.040Z,996.7
2022-11-17T04:03:13.373Z,996.7
2022-11-17T04:04:16.592Z,996.7
2022-11-17T04:05:19.161Z,996.6
2022-11-17T04:06:21.932Z,996.6
2022-11-17T04:07:25.152Z,996.6
2022-11-17T04:08:30.090Z,996.8
2022-11-17T04:09:33.031Z,996.7
2022-11-17T04:10:36.521Z,996.7
2022-11-17T04:11:39.299Z,996.7
2022-11-17T04:12:42.005Z,996.7
2022-11-17T04:13:44.988Z,996.7
2022-11-17T04:14:48.252Z,996.7
2022-11-17T04:15:51.955Z,996.7
2022-11-17T04:16:54.540Z,996.6
2022-11-17T04:17:56.978Z,996.6
2022-11-17T04:18:59.848Z,996.6
2022-11-17T04:20:03.008Z,996.7
2022-11-17T04:21:05.797Z,996.6
2022-11-17T04:22:08.386Z,996.6
2022-11-17T04:23:11.864Z,996.6
2022-11-17T04:24:15.961Z,996.6
2022-11-17T04:25:19.509Z,996.6
2022-11-17T04:26:22.057Z,996.5
2022-11-17T04:27:24.936Z,996.5
2022-11-17T04:28:28.218Z,996.4
2022-11-17T04:29:31.312Z,996.5
2022-11-17T04:30:34.025Z,996.3
2022-11-17T04:31:37.474Z,996.3
2022-11-17T04:32:40.364Z,996.3
2022-11-17T04:33:43.245Z,996.3
2022-11-17T04:34:45.693Z,996.2
2022-11-17T04:35:47.936Z,996.3
2022-11-17T04:36:51.086Z,996.2
2022-11-17T04:37:54.258Z,996.3
2022-11-17T04:38:57.113Z,996.2
2022-11-17T04:40:01.609Z,996.3
2022-11-17T04:41:04.434Z,996.3
2022-11-17T04:42:07.893Z,996.2
2022-11-17T04:43:11.036Z,996.2
2022-11-17T04:44:13.763Z,996.2
2022-11-17T04:45:16.484Z,996.2
2022-11-17T04:46:19.307Z,996.1
2022-11-17T04:47:22.388Z,996.2
2022-11-17T04:48:25.259Z,996.3
2022-11-17T04:49:27.785Z,996.2
2022-11-17T04:50:30.866Z,996.2
2022-11-17T04:51:33.736Z,996.2
2022-11-17T04:52:36.438Z,996.2
2022-11-17T04:53:39.225Z,996.2
2022-11-17T04:54:42.608Z,996.2
2022-11-17T04:55:46.864Z,996.1
2022-11-17T04:56:49.571Z,996.2
2022-11-17T04:57:52.389Z,996.1
2022-11-17T04:58:55.333Z,996
2022-11-17T04:59:58.049Z,996.1
2022-11-17T05:01:01.070Z,996.2
2022-11-17T05:02:06.657Z,996.1
2022-11-17T05:03:10.132Z,996.1
2022-11-17T05:04:12.727Z,996.1
2022-11-17T05:05:16.128Z,996
2022-11-17T05:06:18.842Z,996
2022-11-17T05:07:22.310Z,996.1
2022-11-17T05:08:25.089Z,996.2
2022-11-17T05:09:28.082Z,996.1
2022-11-17T05:10:30.324Z,996
2022-11-17T05:11:34.624Z,996.1
2022-11-17T05:12:37.720Z,995.9
2022-11-17T05:13:41.179Z,996
2022-11-17T05:14:44.247Z,996
2022-11-17T05:15:47.061Z,996.1
2022-11-17T05:16:49.933Z,995.9
2022-11-17T05:17:52.748Z,996
2022-11-17T05:18:55.556Z,996
2022-11-17T05:19:59.022Z,996.1
2022-11-17T05:21:01.924Z,996
2022-11-17T05:22:04.732Z,995.9
2022-11-17T05:23:07.410Z,995.9
2022-11-17T05:24:10.876Z,996.1
2022-11-17T05:25:13.997Z,996
2022-11-17T05:26:17.348Z,996
2022-11-17T05:27:21.730Z,996.1
2022-11-17T05:28:25.102Z,996
2022-11-17T05:29:28.964Z,996.1
2022-11-17T05:30:31.678Z,996.1
2022-11-17T05:31:34.823Z,996
2022-11-17T05:32:38.577Z,996
2022-11-17T05:33:42.034Z,996
2022-11-17T05:34:47.061Z,996.1
2022-11-17T05:35:49.597Z,996
2022-11-17T05:36:52.309Z,996
2022-11-17T05:37:55.034Z,996
2022-11-17T05:38:57.751Z,996.1
2022-11-17T05:40:00.826Z,996
2022-11-17T05:41:03.716Z,996
2022-11-17T05:42:07.430Z,996
2022-11-17T05:43:12.074Z,996
2022-11-17T05:44:15.273Z,995.9
2022-11-17T05:45:18.391Z,996
2022-11-17T05:46:21.296Z,996
2022-11-17T05:47:24.011Z,996
2022-11-17T05:48:26.721Z,995.9
2022-11-17T05:49:28.954Z,996
2022-11-17T05:50:32.471Z,996
2022-11-17T05:51:35.631Z,995.9
2022-11-17T05:52:38.429Z,996
2022-11-17T05:53:41.318Z,995.9
2022-11-17T05:54:44.116Z,996
2022-11-17T05:55:46.932Z,996
2022-11-17T05:56:49.987Z,996
2022-11-17T05:57:53.335Z,996
2022-11-17T05:58:57.433Z,995.9
2022-11-17T06:00:00.349Z,996
2022-11-17T06:01:03.166Z,995.9
2022-11-17T06:02:06.048Z,995.9
2022-11-17T06:03:08.568Z,996
2022-11-17T06:04:10.907Z,995.9
2022-11-17T06:05:20.748Z,995.9
2022-11-17T06:06:23.593Z,996
2022-11-17T06:07:27.051Z,996
2022-11-17T06:08:30.212Z,995.9
2022-11-17T06:09:33.081Z,995.9
2022-11-17T06:10:36.425Z,995.9
2022-11-17T06:11:39.320Z,995.9
2022-11-17T06:12:42.597Z,996
2022-11-17T06:13:45.279Z,995.9
2022-11-17T06:14:49.539Z,995.9
2022-11-17T06:15:52.991Z,995.9
2022-11-17T06:16:56.388Z,995.9
2022-11-17T06:17:59.183Z,995.9
2022-11-17T06:19:02.139Z,995.9
2022-11-17T06:20:05.019Z,995.9
2022-11-17T06:21:07.461Z,995.9
2022-11-17T06:22:13.909Z,996
2022-11-17T06:23:17.604Z,995.9
2022-11-17T06:24:19.921Z,995.9
2022-11-17T06:25:22.916Z,995.8
2022-11-17T06:26:25.993Z,995.9
2022-11-17T06:27:29.145Z,995.8
2022-11-17T06:28:32.562Z,995.8
2022-11-17T06:29:44.569Z,995.7
2022-11-17T06:30:49.310Z,995.8
2022-11-17T06:31:52.384Z,995.8
2022-11-17T06:32:55.453Z,995.8
2022-11-17T06:33:57.987Z,995.8
2022-11-17T06:35:01.148Z,995.8
2022-11-17T06:36:04.026Z,995.9
2022-11-17T06:37:07.101Z,995.8
2022-11-17T06:38:09.980Z,995.8
2022-11-17T06:39:12.502Z,995.8
2022-11-17T06:40:15.659Z,995.9
2022-11-17T06:41:18.802Z,995.8
2022-11-17T06:42:21.399Z,995.8
2022-11-17T06:43:24.114Z,995.8
2022-11-17T06:44:26.904Z,995.8
2022-11-17T06:45:29.613Z,995.9
2022-11-17T06:46:33.942Z,995.8
2022-11-17T06:47:37.256Z,995.8
2022-11-17T06:48:40.161Z,995.8
2022-11-17T06:49:42.883Z,995.8
2022-11-17T06:50:45.967Z,995.8
2022-11-17T06:51:48.867Z,995.8
2022-11-17T06:52:51.939Z,995.8
2022-11-17T06:53:55.330Z,995.8
2022-11-17T06:54:57.807Z,995.8
2022-11-17T06:56:00.920Z,995.7
2022-11-17T06:57:03.233Z,995.7
2022-11-17T06:58:06.657Z,995.7
2022-11-17T06:59:10.070Z,995.7
2022-11-17T07:00:13.191Z,995.7
2022-11-17T07:01:16.267Z,995.7
2022-11-17T07:02:20.734Z,995.7
2022-11-17T07:03:23.379Z,995.7
2022-11-17T07:04:26.361Z,995.7
2022-11-17T07:05:29.214Z,995.6
2022-11-17T07:06:33.190Z,995.7
2022-11-17T07:07:36.111Z,995.6
2022-11-17T07:08:39.246Z,995.6
2022-11-17T07:09:42.152Z,995.6
2022-11-17T07:10:49.798Z,995.6
2022-11-17T07:11:52.774Z,995.7
2022-11-17T07:12:55.832Z,995.5
2022-11-17T07:13:58.676Z,995.6
2022-11-17T07:15:02.158Z,995.6
2022-11-17T07:16:04.978Z,995.6
2022-11-17T07:17:08.310Z,995.6
2022-11-17T07:18:12.894Z,995.5
2022-11-17T07:19:15.336Z,995.6
2022-11-17T07:20:18.140Z,995.6
2022-11-17T07:21:20.847Z,995.6
2022-11-17T07:22:23.620Z,995.6
2022-11-17T07:23:26.788Z,995.6
2022-11-17T07:24:29.936Z,995.6
2022-11-17T07:25:32.708Z,995.6
2022-11-17T07:26:35.770Z,995.6
2022-11-17T07:27:39.105Z,995.6
2022-11-17T07:28:41.877Z,995.6
2022-11-17T07:29:45.202Z,995.5
2022-11-17T07:30:49.258Z,995.6
2022-11-17T07:31:51.677Z,995.5
2022-11-17T07:32:55.514Z,995.5
2022-11-17T07:33:59.708Z,995.5
2022-11-17T07:35:02.693Z,995.5
2022-11-17T07:36:06.292Z,995.5
2022-11-17T07:37:08.986Z,995.5
2022-11-17T07:38:11.888Z,995.6
2022-11-17T07:39:22.087Z,995.4
2022-11-17T07:40:24.964Z,995.4
2022-11-17T07:41:28.066Z,995.5
2022-11-17T07:42:31.112Z,995.5
2022-11-17T07:43:33.901Z,995.5
2022-11-17T07:44:36.920Z,995.4
2022-11-17T07:45:39.967Z,995.5
2022-11-17T07:46:43.673Z,995.5
2022-11-17T07:47:46.818Z,995.5
2022-11-17T07:48:50.228Z,995.5
2022-11-17T07:49:54.440Z,995.5
2022-11-17T07:50:57.881Z,995.5
2022-11-17T07:52:01.661Z,995.5
2022-11-17T07:53:04.442Z,995.4
2022-11-17T07:54:07.651Z,995.4
2022-11-17T07:55:10.364Z,995.4
2022-11-17T07:56:13.791Z,995.5
2022-11-17T07:57:16.850Z,995.4
2022-11-17T07:58:19.836Z,995.4
2022-11-17T07:59:23.181Z,995.4
2022-11-17T08:00:25.858Z,995.5
2022-11-17T08:01:29.807Z,995.4
2022-11-17T08:02:33.624Z,995.4
2022-11-17T08:03:36.025Z,995.4
2022-11-17T08:04:39.486Z,995.3
2022-11-17T08:05:44.441Z,995.4
2022-11-17T08:06:47.846Z,995.4
2022-11-17T08:07:50.974Z,995.3
2022-11-17T08:08:54.112Z,995.3
2022-11-17T08:09:57.519Z,995.3
2022-11-17T08:11:01.011Z,995.4
2022-11-17T08:12:03.998Z,995.3
2022-11-17T08:13:07.075Z,995.3
2022-11-17T08:14:10.231Z,995.4
2022-11-17T08:15:13.942Z,995.3
2022-11-17T08:16:17.343Z,995.3
2022-11-17T08:17:20.383Z,995.3
2022-11-17T08:18:23.474Z,995.4
2022-11-17T08:19:26.815Z,995.2
2022-11-17T08:20:30.587Z,995.3
2022-11-17T08:21:34.788Z,995.2
2022-11-17T08:22:37.900Z,995.2
2022-11-17T08:23:40.888Z,995.2
2022-11-17T08:24:44.203Z,995.2
2022-11-17T08:25:46.344Z,995.2
2022-11-17T08:26:49.780Z,995.3
2022-11-17T08:27:53.205Z,995.2
2022-11-17T08:28:59.231Z,995.2
2022-11-17T08:30:02.214Z,995
2022-11-17T08:31:05.900Z,995.1
2022-11-17T08:32:09.400Z,995
2022-11-17T08:33:11.638Z,995.2
2022-11-17T08:34:14.977Z,995.1
2022-11-17T08:35:17.499Z,995
2022-11-17T08:36:20.574Z,995.1
2022-11-17T08:37:25.049Z,995.1
2022-11-17T08:38:28.507Z,995.1
2022-11-17T08:39:31.782Z,995.1
2022-11-17T08:40:35.211Z,995
2022-11-17T08:41:38.615Z,995.2
2022-11-17T08:42:42.290Z,995
2022-11-17T08:43:45.069Z,995.1
2022-11-17T08:44:48.199Z,995.1
2022-11-17T08:45:51.176Z,995.1
2022-11-17T08:46:54.521Z,995.1
2022-11-17T08:47:57.950Z,995.1
2022-11-17T08:49:00.442Z,995
2022-11-17T08:50:03.323Z,995.1
2022-11-17T08:51:06.126Z,995.1
2022-11-17T08:52:09.572Z,995
2022-11-17T08:53:14.164Z,994.9
2022-11-17T08:54:17.261Z,995
2022-11-17T08:55:20.634Z,994.9
2022-11-17T08:56:24.186Z,994.9
2022-11-17T08:57:27.465Z,994.9
2022-11-17T08:58:30.439Z,995
2022-11-17T08:59:34.181Z,995
2022-11-17T09:00:37.299Z,995
2022-11-17T09:01:40.569Z,995
2022-11-17T09:02:43.988Z,995
2022-11-17T09:03:47.250Z,995
2022-11-17T09:04:49.740Z,995
2022-11-17T09:05:52.780Z,995
2022-11-17T09:06:55.662Z,995
2022-11-17T09:08:43.752Z,995
2022-11-17T09:09:52.061Z,995
2022-11-17T09:10:55.483Z,995
2022-11-17T09:11:58.457Z,995.1
2022-11-17T09:13:01.881Z,995
2022-11-17T09:14:04.928Z,995.1
2022-11-17T09:15:07.724Z,995.1
2022-11-17T09:16:11.329Z,995
2022-11-17T09:17:13.906Z,995.1
2022-11-17T09:18:16.899Z,995.1
2022-11-17T09:19:20.320Z,995
2022-11-17T09:20:23.167Z,995.1
2022-11-17T09:21:26.218Z,994.9
2022-11-17T09:22:29.387Z,995
2022-11-17T09:23:32.220Z,995
2022-11-17T09:24:37.269Z,994.9
2022-11-17T09:25:41.557Z,994.9
2022-11-17T09:26:44.940Z,995
2022-11-17T09:27:48.006Z,995
2022-11-17T09:28:51.721Z,995
2022-11-17T09:29:55.219Z,995
2022-11-17T09:31:01.729Z,995
2022-11-17T09:32:05.448Z,995.1
2022-11-17T09:33:07.959Z,995
2022-11-17T09:34:10.954Z,995.1
2022-11-17T09:35:14.390Z,995.1
2022-11-17T09:36:17.004Z,995
2022-11-17T09:37:19.991Z,995.1
2022-11-17T09:38:23.427Z,995
2022-11-17T09:39:27.349Z,995.1
2022-11-17T09:40:38.267Z,995.1
2022-11-17T09:41:42.901Z,995
2022-11-17T09:42:46.050Z,995.1
2022-11-17T09:43:49.098Z,995
2022-11-17T09:44:52.369Z,995
2022-11-17T09:45:55.488Z,994.9
2022-11-17T09:46:58.573Z,994.9
2022-11-17T09:48:40.953Z,994.9
2022-11-17T09:49:45.569Z,995
2022-11-17T09:50:48.635Z,995
2022-11-17T09:51:52.067Z,994.9
2022-11-17T09:52:55.403Z,994.9
2022-11-17T09:53:58.384Z,994.9
2022-11-17T09:55:01.376Z,995
2022-11-17T09:56:04.643Z,994.9
2022-11-17T09:57:09.060Z,994.9
2022-11-17T09:58:12.221Z,994.8
2022-11-17T09:59:15.379Z,994.7
2022-11-17T10:00:18.709Z,994.8
2022-11-17T10:01:22.380Z,994.8
2022-11-17T10:02:25.685Z,994.8
2022-11-17T10:03:28.437Z,994.8
2022-11-17T10:04:33.035Z,994.8
2022-11-17T10:05:35.910Z,994.7
2022-11-17T10:06:39.595Z,994.8
2022-11-17T10:07:42.381Z,994.7
2022-11-17T10:08:45.519Z,994.7
2022-11-17T10:09:49.018Z,994.6
2022-11-17T10:10:52.030Z,994.7
2022-11-17T10:11:54.722Z,994.7
2022-11-17T10:12:59.275Z,994.6
2022-11-17T10:14:02.643Z,994.5
2022-11-17T10:15:06.361Z,994.6
2022-11-17T10:16:08.875Z,994.6
2022-11-17T10:17:11.948Z,994.6
2022-11-17T10:18:15.278Z,994.6
2022-11-17T10:19:18.191Z,994.6
2022-11-17T10:20:21.449Z,994.6
2022-11-17T10:21:24.320Z,994.5
2022-11-17T10:22:27.924Z,994.6
2022-11-17T10:23:31.047Z,994.6
2022-11-17T10:24:35.192Z,994.5
2022-11-17T10:25:38.447Z,994.6
2022-11-17T10:26:42.438Z,994.5
2022-11-17T10:27:45.434Z,994.6
2022-11-17T10:28:49.653Z,994.5
2022-11-17T10:29:52.654Z,994.5
2022-11-17T10:30:55.521Z,994.5
2022-11-17T10:31:58.932Z,994.5
2022-11-17T10:33:01.894Z,994.5
2022-11-17T10:34:05.595Z,994.6
2022-11-17T10:35:08.527Z,994.5
2022-11-17T10:36:11.973Z,994.5
2022-11-17T10:37:15.427Z,994.5
2022-11-17T10:38:19.389Z,994.5
2022-11-17T10:39:22.667Z,994.5
2022-11-17T10:40:26.832Z,994.5
2022-11-17T10:41:30.481Z,994.5
2022-11-17T10:42:33.534Z,994.5
2022-11-17T10:43:37.155Z,994.5
2022-11-17T10:44:42.040Z,994.6
2022-11-17T10:45:45.259Z,994.4
2022-11-17T10:46:48.548Z,994.6
2022-11-17T10:48:01.783Z,994.5
2022-11-17T10:49:05.190Z,994.5
2022-11-17T10:50:08.260Z,994.4
2022-11-17T10:51:10.193Z,994.5
2022-11-17T10:52:12.706Z,994.5
2022-11-17T10:53:15.561Z,994.5
2022-11-17T10:54:18.538Z,994.5
2022-11-17T10:55:21.883Z,994.5
2022-11-17T10:56:25.003Z,994.5
2022-11-17T10:57:28.181Z,994.4
2022-11-17T10:58:30.949Z,994.4
2022-11-17T10:59:34.893Z,994.4
2022-11-17T11:00:39.010Z,994.4
2022-11-17T11:01:42.768Z,994.4
2022-11-17T11:02:46.263Z,994.4
2022-11-17T11:03:49.319Z,994.4
2022-11-17T11:04:52.062Z,994.4
2022-11-17T11:05:55.458Z,994.4
2022-11-17T11:06:58.070Z,994.5
2022-11-17T11:08:02.144Z,994.4
2022-11-17T11:09:04.837Z,994.5
2022-11-17T11:10:08.259Z,994.4
2022-11-17T11:11:11.229Z,994.3
2022-11-17T11:12:13.734Z,994.4
2022-11-17T11:13:17.729Z,994.4
2022-11-17T11:14:21.060Z,994.5
2022-11-17T11:15:24.462Z,994.5
2022-11-17T11:16:28.623Z,994.5
2022-11-17T11:17:31.146Z,994.4
2022-11-17T11:18:34.130Z,994.6
2022-11-17T11:19:36.828Z,994.5
2022-11-17T11:20:39.534Z,994.5
2022-11-17T11:21:42.789Z,994.4
2022-11-17T11:22:45.782Z,994.4
2022-11-17T11:23:48.551Z,994.3
2022-11-17T11:24:51.605Z,994.4
2022-11-17T11:25:54.766Z,994.5
2022-11-17T11:26:58.403Z,994.4
2022-11-17T11:28:01.505Z,994.3
2022-11-17T11:29:04.995Z,994.4
2022-11-17T11:30:07.702Z,994.4
2022-11-17T11:31:10.752Z,994.3
2022-11-17T11:32:14.991Z,994.2
2022-11-17T11:33:17.993Z,994.3
2022-11-17T11:34:21.407Z,994.3
2022-11-17T11:35:24.746Z,994.2
2022-11-17T11:36:27.292Z,994.2
2022-11-17T11:37:30.696Z,994.2
2022-11-17T11:38:34.107Z,994.1
2022-11-17T11:39:37.735Z,994.2
2022-11-17T11:40:40.528Z,994.2
2022-11-17T11:41:43.856Z,994.3
2022-11-17T11:42:46.713Z,994.2
2022-11-17T11:43:49.148Z,994.3
2022-11-17T11:44:52.505Z,994.3
2022-11-17T11:45:55.381Z,994.3
2022-11-17T11:46:59.125Z,994.2
2022-11-17T11:48:02.988Z,994.3
2022-11-17T11:49:05.939Z,994.3
2022-11-17T11:50:09.033Z,994.2
2022-11-17T11:51:12.637Z,994.3
2022-11-17T11:52:15.955Z,994.2
2022-11-17T11:53:18.734Z,994.2
2022-11-17T11:54:22.178Z,994.2
2022-11-17T11:55:25.530Z,994.2
2022-11-17T11:56:28.580Z,994.3
2022-11-17T11:57:31.634Z,994.2
2022-11-17T11:58:35.310Z,994.3
2022-11-17T11:59:38.434Z,994.3
2022-11-17T12:00:41.121Z,994.3
2022-11-17T12:01:44.555Z,994.2
2022-11-17T12:02:47.507Z,994.2
2022-11-17T12:03:52.382Z,994.3
2022-11-17T12:04:56.017Z,994.3
2022-11-17T12:05:59.077Z,994.3
2022-11-17T12:07:02.115Z,994.3
2022-11-17T12:08:11.177Z,994.3
2022-11-17T12:09:13.684Z,994.2
2022-11-17T12:10:17.138Z,994.3
2022-11-17T12:11:19.904Z,994.3
2022-11-17T12:12:21.845Z,994.3
2022-11-17T12:13:24.825Z,994.2
2022-11-17T12:14:28.518Z,994.3
2022-11-17T12:15:31.853Z,994.3
2022-11-17T12:16:35.291Z,994.2
2022-11-17T12:17:38.818Z,994.2
2022-11-17T12:18:41.954Z,994.1
2022-11-17T12:19:45.896Z,994.2
2022-11-17T12:20:49.334Z,994.2
2022-11-17T12:21:52.313Z,994.2
2022-11-17T12:22:55.409Z,994.2
2022-11-17T12:23:58.736Z,994.1
2022-11-17T12:25:01.786Z,994.2
2022-11-17T12:26:05.224Z,994.2
2022-11-17T12:27:08.643Z,994.2
2022-11-17T12:28:11.720Z,994.2
2022-11-17T12:29:14.938Z,994.2
2022-11-17T12:30:18.350Z,994.2
2022-11-17T12:31:21.213Z,994.2
2022-11-17T12:32:24.673Z,994.3
2022-11-17T12:33:28.003Z,994.1
2022-11-17T12:34:31.716Z,994.1
2022-11-17T12:35:35.831Z,994.2
2022-11-17T12:36:38.884Z,994.1
2022-11-17T12:37:42.141Z,994.2
2022-11-17T12:38:45.194Z,994.2
2022-11-17T12:39:48.045Z,994.1
2022-11-17T12:40:50.630Z,994.1
2022-11-17T12:41:55.389Z,994.2
2022-11-17T12:42:58.441Z,994.2
2022-11-17T12:44:01.435Z,994.2
2022-11-17T12:45:04.959Z,994.1
2022-11-17T12:46:08.015Z,994.1
2022-11-17T12:47:11.077Z,994.2
2022-11-17T12:48:34.927Z,994.1
2022-11-17T12:49:39.953Z,994.1
2022-11-17T12:50:44.210Z,994.1
2022-11-17T12:51:48.215Z,994.2
2022-11-17T12:52:51.652Z,994.1
2022-11-17T12:53:55.018Z,994.1
2022-11-17T12:54:58.327Z,994.1
2022-11-17T12:56:01.115Z,994.1
2022-11-17T12:57:03.606Z,994
2022-11-17T12:58:11.154Z,994.1
2022-11-17T12:59:14.872Z,994.1
2022-11-17T13:00:18.883Z,994.1
2022-11-17T13:01:21.866Z,994.3
2022-11-17T13:02:25.115Z,994.1
2022-11-17T13:03:28.174Z,994.1
2022-11-17T13:04:31.223Z,994.1
2022-11-17T13:05:34.274Z,994.2
2022-11-17T13:06:38.772Z,994.2
2022-11-17T13:07:41.961Z,994
2022-11-17T13:08:44.265Z,994
2022-11-17T13:09:47.411Z,994.1
2022-11-17T13:10:50.186Z,994
2022-11-17T13:11:53.603Z,994.1
2022-11-17T13:12:56.536Z,994
2022-11-17T13:13:59.950Z,994.1
2022-11-17T13:15:03.805Z,994
2022-11-17T13:16:07.103Z,994
2022-11-17T13:17:09.670Z,994.1
2022-11-17T13:18:12.805Z,994
2022-11-17T13:19:15.859Z,994.1
2022-11-17T13:20:18.911Z,994.1
2022-11-17T13:21:21.634Z,994
2022-11-17T13:22:25.846Z,994
2022-11-17T13:23:28.631Z,994
2022-11-17T13:24:31.689Z,994.1
2022-11-17T13:25:34.521Z,994.1
2022-11-17T13:26:37.120Z,994
2022-11-17T13:27:39.760Z,993.9
2022-11-17T13:28:42.938Z,994.1
2022-11-17T13:29:45.940Z,994
2022-11-17T13:30:48.992Z,994
2022-11-17T13:31:52.393Z,994
2022-11-17T13:32:56.141Z,994
2022-11-17T13:33:58.931Z,994
2022-11-17T13:35:02.304Z,994
2022-11-17T13:36:04.880Z,994
2022-11-17T13:37:09.159Z,993.9
2022-11-17T13:38:13.392Z,993.9
2022-11-17T13:39:18.137Z,994
2022-11-17T13:40:30.326Z,993.9
2022-11-17T13:41:32.911Z,993.9
2022-11-17T13:42:35.434Z,993.9
2022-11-17T13:43:38.865Z,993.9
2022-11-17T13:44:42.311Z,993.9
2022-11-17T13:45:44.876Z,993.9
2022-11-17T13:46:48.309Z,993.9
2022-11-17T13:47:51.012Z,993.9